»·PEaware :: N172TT KTOA-KVNY

N172TT :: KTOA-KVNY

FLIGHT INFORMATION

Flight Status: Arrived
Operator: Privately registered:
United States
More flights under this callsign
Pilot: Thomas T. (19955)
Aircraft: CESSNA 172 SKYHAWK
(C172)
More flights by this aircraft type
Origin: KTOA Zamperini
United States
Destination: KVNY Van Nuys
United States
More flights between these airports :: More routes between these airports
Route: +
File this flight plan on PilotEdge
Remarks:
Altitude:
(Current/Filed)
0ft
Speed:
(Current/Filed)
0kts
Departed: 23-Aug-18 12:39 PM
Arrived: 23-Aug-18 01:12 PM
Distance/Time
Traveled:
26nm/0:33
Distance/Time
To Go:
Arrived

Flight Plot

Page will automatically refresh every two minutes.


Map Options




Map Legend


Flown Route
Filed Route
Departure Airport
Arrival Airport
Navaid (VOR, NDB)
Fix

Horizontal Profiles

Position Reports

Time Latitude Longitude Heading Altitude Ground
Speed
23-Aug-18 12:30 33.803347 -118.344051 39 102ft 0kts
23-Aug-18 12:31 33.802775 -118.342686 97 103ft 7kts
23-Aug-18 12:32 33.801061 -118.339094 128 103ft 21kts
23-Aug-18 12:33 33.798176 -118.334193 45 104ft 13kts
23-Aug-18 12:34 33.799171 -118.333248 32 100ft 0kts
23-Aug-18 12:35 33.799171 -118.333248 32 100ft 0kts
23-Aug-18 12:36 33.799171 -118.333248 32 100ft 0kts
23-Aug-18 12:37 33.799171 -118.333248 32 100ft 0kts
23-Aug-18 12:38 33.799171 -118.333248 32 100ft 0kts
23-Aug-18 12:39 33.799179 -118.333241 32 100ft 0kts
23-Aug-18 12:40 33.802240 -118.336859 311 139ft 69kts
23-Aug-18 12:41 33.817912 -118.358203 295 653ft 84kts
23-Aug-18 12:42 33.828031 -118.383093 295 1113ft 85kts
23-Aug-18 12:43 33.832897 -118.409203 224 1516ft 85kts
23-Aug-18 12:44 33.819399 -118.395980 86 1822ft 93kts
23-Aug-18 12:45 33.820921 -118.363828 86 1924ft 98kts
23-Aug-18 12:46 33.822509 -118.331075 86 2024ft 98kts
23-Aug-18 12:47 33.831281 -118.303368 6 2120ft 97kts
23-Aug-18 12:48 33.853446 -118.321176 319 2221ft 97kts
23-Aug-18 12:49 33.874977 -118.341639 324 2256ft 100kts
23-Aug-18 12:50 33.898073 -118.359631 328 2332ft 99kts
23-Aug-18 12:51 33.922358 -118.376192 330 2332ft 101kts
23-Aug-18 12:52 33.946158 -118.392807 328 2416ft 98kts
23-Aug-18 12:53 33.968822 -118.412408 320 2418ft 101kts
23-Aug-18 12:54 33.990449 -118.433665 320 2417ft 101kts
23-Aug-18 12:55 34.010940 -118.456804 315 2418ft 101kts
23-Aug-18 12:56 34.030999 -118.480418 315 2417ft 101kts
23-Aug-18 12:57 34.051086 -118.504109 315 2417ft 101kts
23-Aug-18 12:58 34.071203 -118.527876 315 2417ft 101kts
23-Aug-18 12:59 34.091212 -118.551558 315 2416ft 101kts
23-Aug-18 13:00 34.110432 -118.574345 315 2416ft 101kts
23-Aug-18 13:01 34.130438 -118.598107 315 2416ft 101kts
23-Aug-18 13:02 34.150337 -118.621785 315 2416ft 101kts
23-Aug-18 13:03 34.170367 -118.645664 315 2415ft 101kts
23-Aug-18 13:04 34.189503 -118.668519 314 2415ft 101kts
23-Aug-18 13:05 34.211787 -118.685218 17 2401ft 101kts
23-Aug-18 13:06 34.224537 -118.660741 104 2381ft 101kts
23-Aug-18 13:07 34.217906 -118.627901 103 2381ft 101kts
23-Aug-18 13:08 34.211300 -118.594854 102 2381ft 101kts
23-Aug-18 13:09 34.210338 -118.564117 46 2373ft 101kts
23-Aug-18 13:10 34.225940 -118.536745 71 2244ft 90kts
23-Aug-18 13:11 34.231019 -118.512139 77 1943ft 72kts
23-Aug-18 13:12 34.225263 -118.492053 163 1333ft 71kts
23-Aug-18 13:13 34.210968 -118.490568 186 806ft 12kts
23-Aug-18 13:14 34.210107 -118.491435 250 806ft 6kts
23-Aug-18 13:15 34.209891 -118.491915 179 806ft 0kts
23-Aug-18 13:16 34.209891 -118.491915 179 806ft 0kts
23-Aug-18 13:17 34.209891 -118.491915 179 806ft 0kts
23-Aug-18 13:18 34.209891 -118.491915 179 806ft 0kts
23-Aug-18 13:19 34.209891 -118.491915 179 806ft 0kts
23-Aug-18 13:20 34.209891 -118.491915 179 806ft 0kts
23-Aug-18 13:21 34.209891 -118.491915 179 806ft 0kts
23-Aug-18 13:22 34.209891 -118.491915 179 806ft 0kts
23-Aug-18 13:23 34.209891 -118.491915 179 806ft 0kts
23-Aug-18 13:24 34.209891 -118.491915 179 806ft 0kts
23-Aug-18 13:25 34.209891 -118.491915 179 806ft 0kts
23-Aug-18 13:26 34.209891 -118.491915 179 806ft 0kts
23-Aug-18 13:27 34.209891 -118.491915 179 806ft 0kts

Navigation Log

Ident Type
1. KTOA Airport
2. KVNY Airport